createdAt,value
2022-11-29T00:00:25.109Z,0.00
2022-11-29T00:01:25.102Z,0.00
2022-11-29T00:02:25.190Z,0.00
2022-11-29T00:03:25.206Z,0.00
2022-11-29T00:04:25.754Z,0.00
2022-11-29T00:05:25.148Z,0.00
2022-11-29T00:06:25.072Z,0.00
2022-11-29T00:07:25.122Z,0.00
2022-11-29T00:08:25.028Z,0.00
2022-11-29T00:09:25.011Z,0.00
2022-11-29T00:10:25.040Z,0.00
2022-11-29T00:11:25.020Z,0.00
2022-11-29T00:12:25.004Z,0.00
2022-11-29T00:13:24.962Z,0.00
2022-11-29T00:14:25.014Z,0.00
2022-11-29T00:15:25.791Z,0.00
2022-11-29T00:16:24.966Z,0.00
2022-11-29T00:17:25.043Z,0.00
2022-11-29T00:18:25.565Z,0.00
2022-11-29T00:19:25.454Z,0.00
2022-11-29T00:20:24.954Z,0.00
2022-11-29T00:21:25.786Z,0.00
2022-11-29T00:22:24.923Z,0.00
2022-11-29T00:23:24.976Z,0.00
2022-11-29T00:24:25.720Z,0.00
2022-11-29T00:25:24.831Z,0.00
2022-11-29T00:26:24.840Z,0.00
2022-11-29T00:27:24.793Z,0.00
2022-11-29T00:28:25.063Z,0.00
2022-11-29T00:29:24.820Z,0.00
2022-11-29T00:30:25.627Z,0.00
2022-11-29T00:31:24.777Z,0.00
2022-11-29T00:32:24.835Z,0.00
2022-11-29T00:33:25.500Z,0.00
2022-11-29T00:34:24.738Z,0.00
2022-11-29T00:35:24.748Z,0.00
2022-11-29T00:36:25.535Z,0.00
2022-11-29T00:37:24.708Z,0.00
2022-11-29T00:38:25.698Z,0.00
2022-11-29T00:39:24.677Z,0.00
2022-11-29T00:40:24.683Z,0.00
2022-11-29T00:41:24.740Z,0.00
2022-11-29T00:42:24.644Z,0.00
2022-11-29T00:43:26.181Z,0.00
2022-11-29T00:44:24.652Z,0.00
2022-11-29T00:45:25.234Z,0.00
2022-11-29T00:46:24.742Z,0.00
2022-11-29T00:47:25.488Z,0.00
2022-11-29T00:48:24.631Z,0.00
2022-11-29T00:49:24.692Z,0.00
2022-11-29T00:50:25.716Z,0.00
2022-11-29T00:51:25.594Z,0.00
2022-11-29T00:52:24.562Z,0.00
2022-11-29T00:53:24.614Z,0.00
2022-11-29T00:54:24.517Z,0.00
2022-11-29T00:55:24.526Z,0.00
2022-11-29T00:56:24.490Z,0.00
2022-11-29T00:57:24.498Z,0.00
2022-11-29T00:58:24.481Z,0.00
2022-11-29T00:59:24.507Z,0.00
2022-11-29T01:00:24.517Z,0.00
2022-11-29T01:01:24.502Z,0.00
2022-11-29T01:02:24.525Z,0.00
2022-11-29T01:03:24.420Z,0.00
2022-11-29T01:04:24.423Z,0.00
2022-11-29T01:05:24.431Z,0.00
2022-11-29T01:06:24.436Z,0.00
2022-11-29T01:07:24.513Z,0.00
2022-11-29T01:08:24.347Z,0.00
2022-11-29T01:09:24.403Z,0.00
2022-11-29T01:10:24.370Z,0.00
2022-11-29T01:11:24.428Z,0.00
2022-11-29T01:12:24.328Z,0.00
2022-11-29T01:13:24.382Z,0.00
2022-11-29T01:14:24.310Z,0.00
2022-11-29T01:15:24.294Z,0.00
2022-11-29T01:16:24.451Z,0.00
2022-11-29T01:17:24.320Z,0.00
2022-11-29T01:18:24.528Z,0.00
2022-11-29T01:19:24.388Z,0.00
2022-11-29T01:20:24.328Z,0.00
2022-11-29T01:21:24.237Z,0.00
2022-11-29T01:22:24.294Z,0.00
2022-11-29T01:23:24.249Z,0.00
2022-11-29T01:24:24.271Z,0.00
2022-11-29T01:25:24.209Z,0.00
2022-11-29T01:26:24.475Z,0.00
2022-11-29T01:27:24.236Z,0.00
2022-11-29T01:28:24.196Z,0.00
2022-11-29T01:29:24.192Z,0.00
2022-11-29T01:30:24.543Z,0.00
2022-11-29T01:31:24.215Z,0.00
2022-11-29T01:32:24.110Z,0.00
2022-11-29T01:33:24.112Z,0.00
2022-11-29T01:34:24.120Z,0.00
2022-11-29T01:35:24.135Z,0.00
2022-11-29T01:36:24.138Z,0.00
2022-11-29T01:37:24.145Z,0.00
2022-11-29T01:38:24.047Z,0.00
2022-11-29T01:39:24.775Z,0.00
2022-11-29T01:40:24.058Z,0.00
2022-11-29T01:41:24.068Z,0.00
2022-11-29T01:42:24.075Z,0.00
2022-11-29T01:43:23.974Z,0.00
2022-11-29T01:44:23.988Z,0.00
2022-11-29T01:45:24.036Z,0.00
2022-11-29T01:46:24.090Z,0.00
2022-11-29T01:47:23.981Z,0.00
2022-11-29T01:48:23.953Z,0.00
2022-11-29T01:49:23.956Z,0.00
2022-11-29T01:50:23.973Z,0.00
2022-11-29T01:51:23.905Z,0.00
2022-11-29T01:52:23.972Z,0.00
2022-11-29T01:53:24.021Z,0.00
2022-11-29T01:54:23.884Z,0.00
2022-11-29T01:55:23.938Z,0.00
2022-11-29T01:56:23.846Z,0.00
2022-11-29T01:57:23.922Z,0.00
2022-11-29T01:58:23.915Z,0.00
2022-11-29T01:59:23.920Z,0.00
2022-11-29T02:00:23.976Z,0.00
2022-11-29T02:01:23.788Z,0.00
2022-11-29T02:02:23.816Z,0.00
2022-11-29T02:03:23.855Z,0.00
2022-11-29T02:04:23.900Z,0.00
2022-11-29T02:05:23.858Z,0.00
2022-11-29T02:06:23.808Z,0.00
2022-11-29T02:07:23.845Z,0.00
2022-11-29T02:08:23.711Z,0.00
2022-11-29T02:09:23.738Z,0.00
2022-11-29T02:10:24.619Z,0.00
2022-11-29T02:11:23.744Z,0.00
2022-11-29T02:12:23.701Z,0.00
2022-11-29T02:13:23.659Z,0.00
2022-11-29T02:14:23.663Z,0.00
2022-11-29T02:15:23.666Z,0.00
2022-11-29T02:16:23.736Z,0.00
2022-11-29T02:17:23.685Z,0.00
2022-11-29T02:18:23.688Z,0.00
2022-11-29T02:19:23.651Z,0.00
2022-11-29T02:20:23.650Z,0.00
2022-11-29T02:21:23.603Z,0.00
2022-11-29T02:22:23.605Z,0.00
2022-11-29T02:23:23.574Z,0.00
2022-11-29T02:24:23.582Z,0.00
2022-11-29T02:25:23.587Z,0.00
2022-11-29T02:26:23.533Z,0.00
2022-11-29T02:27:23.543Z,0.00
2022-11-29T02:28:23.537Z,0.00
2022-11-29T02:29:23.508Z,0.00
2022-11-29T02:30:23.511Z,0.00
2022-11-29T02:31:23.467Z,0.00
2022-11-29T02:32:23.473Z,0.00
2022-11-29T02:33:23.563Z,0.00
2022-11-29T02:34:23.487Z,0.00
2022-11-29T02:35:23.454Z,0.00
2022-11-29T02:36:23.499Z,0.00
2022-11-29T02:37:23.404Z,0.00
2022-11-29T02:38:23.424Z,0.00
2022-11-29T02:39:23.473Z,0.00
2022-11-29T02:40:23.423Z,0.00
2022-11-29T02:41:23.385Z,0.00
2022-11-29T02:42:23.397Z,0.00
2022-11-29T02:43:23.347Z,0.00
2022-11-29T02:44:23.408Z,0.00
2022-11-29T02:45:23.358Z,0.00
2022-11-29T02:46:23.441Z,0.00
2022-11-29T02:47:23.331Z,0.00
2022-11-29T02:48:23.335Z,0.00
2022-11-29T02:49:23.343Z,0.00
2022-11-29T02:50:23.351Z,0.00
2022-11-29T02:51:23.359Z,0.00
2022-11-29T02:52:23.304Z,0.00
2022-11-29T02:53:23.264Z,0.00
2022-11-29T02:54:23.274Z,0.00
2022-11-29T02:55:23.278Z,0.00
2022-11-29T02:56:23.690Z,0.00
2022-11-29T02:57:23.395Z,0.00
2022-11-29T02:58:23.235Z,0.00
2022-11-29T02:59:23.220Z,0.00
2022-11-29T03:00:23.252Z,0.00
2022-11-29T03:01:23.217Z,0.00
2022-11-29T03:02:23.684Z,0.00
2022-11-29T03:03:23.277Z,0.00
2022-11-29T03:04:23.139Z,0.00
2022-11-29T03:05:23.242Z,0.00
2022-11-29T03:06:23.108Z,0.00
2022-11-29T03:07:23.277Z,0.00
2022-11-29T03:08:23.161Z,0.00
2022-11-29T03:09:23.125Z,0.00
2022-11-29T03:10:23.229Z,0.00
2022-11-29T03:11:25.074Z,0.00
2022-11-29T03:12:23.043Z,0.00
2022-11-29T03:13:23.155Z,0.00
2022-11-29T03:14:23.119Z,0.00
2022-11-29T03:15:23.023Z,0.00
2022-11-29T03:16:23.033Z,0.00
2022-11-29T03:17:22.974Z,0.00
2022-11-29T03:18:22.980Z,0.00
2022-11-29T03:19:22.978Z,0.00
2022-11-29T03:20:23.002Z,0.00
2022-11-29T03:21:22.941Z,0.00
2022-11-29T03:22:22.955Z,0.00
2022-11-29T03:23:22.949Z,0.00
2022-11-29T03:24:22.922Z,0.00
2022-11-29T03:25:22.973Z,0.00
2022-11-29T03:26:22.937Z,0.00
2022-11-29T03:27:22.940Z,0.00
2022-11-29T03:28:22.892Z,0.00
2022-11-29T03:29:22.924Z,0.00
2022-11-29T03:30:22.905Z,0.00
2022-11-29T03:31:22.943Z,0.00
2022-11-29T03:32:22.927Z,0.00
2022-11-29T03:33:22.922Z,0.00
2022-11-29T03:34:22.843Z,0.00
2022-11-29T03:35:22.832Z,0.00
2022-11-29T03:36:22.860Z,0.00
2022-11-29T03:37:22.810Z,0.00
2022-11-29T03:38:22.869Z,0.00
2022-11-29T03:39:22.757Z,0.00
2022-11-29T03:40:22.760Z,0.00
2022-11-29T03:41:22.765Z,0.00
2022-11-29T03:42:22.733Z,0.00
2022-11-29T03:43:22.793Z,0.00
2022-11-29T03:44:22.811Z,0.00
2022-11-29T03:45:22.728Z,0.00
2022-11-29T03:46:22.748Z,0.00
2022-11-29T03:47:22.664Z,0.00
2022-11-29T03:48:22.676Z,0.00
2022-11-29T03:49:22.680Z,0.00
2022-11-29T03:50:22.724Z,0.00
2022-11-29T03:51:22.636Z,0.00
2022-11-29T03:52:22.591Z,0.00
2022-11-29T03:53:22.602Z,0.00
2022-11-29T03:54:22.607Z,0.00
2022-11-29T03:55:22.673Z,0.00
2022-11-29T03:56:22.669Z,0.00
2022-11-29T03:57:22.590Z,0.00
2022-11-29T03:58:22.536Z,0.00
2022-11-29T03:59:22.534Z,0.00
2022-11-29T04:00:22.585Z,0.00
2022-11-29T04:01:22.653Z,0.00
2022-11-29T04:02:22.584Z,0.00
2022-11-29T04:03:22.527Z,0.00
2022-11-29T04:04:22.470Z,0.00
2022-11-29T04:05:22.480Z,0.00
2022-11-29T04:06:22.478Z,0.00
2022-11-29T04:07:22.496Z,0.00
2022-11-29T04:08:22.587Z,0.00
2022-11-29T04:09:22.445Z,0.00
2022-11-29T04:10:22.406Z,0.00
2022-11-29T04:11:22.405Z,0.00
2022-11-29T04:12:22.445Z,0.00
2022-11-29T04:13:22.450Z,0.00
2022-11-29T04:14:22.497Z,0.00
2022-11-29T04:15:22.361Z,0.00
2022-11-29T04:16:22.431Z,0.00
2022-11-29T04:17:22.353Z,0.00
2022-11-29T04:18:22.447Z,0.00
2022-11-29T04:19:22.421Z,0.00
2022-11-29T04:20:22.362Z,0.00
2022-11-29T04:21:22.303Z,0.00
2022-11-29T04:22:22.371Z,0.00
2022-11-29T04:23:22.383Z,0.00
2022-11-29T04:24:22.278Z,0.00
2022-11-29T04:25:22.395Z,0.00
2022-11-29T04:26:22.398Z,0.00
2022-11-29T04:27:22.298Z,0.00
2022-11-29T04:28:22.324Z,0.00
2022-11-29T04:29:22.257Z,0.00
2022-11-29T04:30:22.323Z,0.00
2022-11-29T04:31:22.319Z,0.00
2022-11-29T04:32:22.244Z,0.00
2022-11-29T04:33:22.183Z,0.00
2022-11-29T04:34:22.245Z,0.00
2022-11-29T04:35:22.165Z,0.00
2022-11-29T04:36:22.164Z,0.00
2022-11-29T04:37:22.182Z,0.00
2022-11-29T04:38:22.241Z,0.00
2022-11-29T04:39:22.118Z,0.00
2022-11-29T04:40:22.129Z,0.00
2022-11-29T04:41:22.156Z,0.00
2022-11-29T04:42:22.098Z,0.00
2022-11-29T04:43:22.171Z,0.00
2022-11-29T04:44:22.101Z,0.00
2022-11-29T04:45:22.082Z,0.00
2022-11-29T04:46:22.104Z,0.00
2022-11-29T04:47:22.069Z,0.00
2022-11-29T04:48:22.276Z,0.00
2022-11-29T04:49:22.086Z,0.00
2022-11-29T04:50:22.138Z,0.00
2022-11-29T04:51:21.995Z,0.00
2022-11-29T04:52:22.055Z,0.00
2022-11-29T04:53:22.005Z,0.00
2022-11-29T04:54:22.064Z,0.00
2022-11-29T04:55:29.275Z,0.00
2022-11-29T04:56:21.983Z,0.00
2022-11-29T04:57:21.931Z,0.00
2022-11-29T04:58:21.947Z,0.00
2022-11-29T04:59:21.974Z,0.00
2022-11-29T05:00:22.006Z,0.00
2022-11-29T05:01:22.055Z,0.00
2022-11-29T05:02:21.997Z,0.00
2022-11-29T05:03:21.873Z,0.00
2022-11-29T05:04:21.925Z,0.00
2022-11-29T05:05:22.653Z,0.00
2022-11-29T05:06:21.952Z,0.00
2022-11-29T05:07:21.997Z,0.00
2022-11-29T05:08:21.907Z,0.00
2022-11-29T05:09:21.802Z,0.00
2022-11-29T05:10:21.870Z,0.00
2022-11-29T05:11:26.477Z,0.00
2022-11-29T05:12:21.782Z,1.00
2022-11-29T05:13:21.788Z,1.00
2022-11-29T05:14:21.795Z,1.00
2022-11-29T05:15:21.710Z,1.00
2022-11-29T05:16:21.747Z,1.00
2022-11-29T05:17:21.716Z,1.00
2022-11-29T05:18:21.735Z,1.00
2022-11-29T05:19:21.684Z,1.00
2022-11-29T05:20:21.741Z,1.00
2022-11-29T05:21:21.696Z,1.00
2022-11-29T05:22:21.645Z,1.00
2022-11-29T05:23:21.655Z,1.00
2022-11-29T05:24:21.651Z,1.00
2022-11-29T05:25:21.661Z,1.00
2022-11-29T05:26:21.630Z,1.00
2022-11-29T05:27:21.575Z,1.00
2022-11-29T05:28:21.549Z,1.00
2022-11-29T05:29:21.558Z,1.00
2022-11-29T05:30:21.555Z,1.00
2022-11-29T05:31:21.578Z,1.00
2022-11-29T05:32:21.558Z,1.00
2022-11-29T05:33:21.510Z,1.00
2022-11-29T05:34:21.468Z,1.00
2022-11-29T05:35:21.615Z,1.00
2022-11-29T05:36:21.500Z,1.00
2022-11-29T05:37:21.480Z,1.00
2022-11-29T05:38:21.494Z,1.00
2022-11-29T05:39:21.455Z,1.00
2022-11-29T05:40:21.389Z,1.00
2022-11-29T05:41:21.460Z,1.00
2022-11-29T05:42:21.428Z,1.00
2022-11-29T05:43:21.373Z,1.00
2022-11-29T05:44:21.393Z,1.00
2022-11-29T05:45:21.381Z,1.00
2022-11-29T05:46:21.448Z,1.00
2022-11-29T05:47:21.359Z,1.00
2022-11-29T05:48:21.301Z,1.00
2022-11-29T05:49:21.317Z,1.00
2022-11-29T05:50:21.316Z,1.00
2022-11-29T05:51:21.320Z,1.00
2022-11-29T05:52:21.288Z,1.00
2022-11-29T05:53:21.339Z,1.00
2022-11-29T05:54:21.277Z,1.00
2022-11-29T05:55:21.221Z,1.00
2022-11-29T05:56:21.253Z,1.00
2022-11-29T05:57:21.303Z,1.00
2022-11-29T05:58:25.656Z,1.00
2022-11-29T05:59:21.271Z,1.00
2022-11-29T06:00:21.185Z,1.00
2022-11-29T06:01:21.223Z,1.00
2022-11-29T06:02:21.279Z,1.00
2022-11-29T06:03:21.248Z,1.00
2022-11-29T06:04:21.216Z,1.00
2022-11-29T06:05:21.187Z,1.00
2022-11-29T06:06:21.176Z,1.00
2022-11-29T06:07:21.216Z,1.00
2022-11-29T06:08:21.141Z,1.00
2022-11-29T06:09:21.203Z,1.00
2022-11-29T06:10:21.115Z,1.00
2022-11-29T06:11:21.120Z,1.00
2022-11-29T06:12:21.528Z,1.00
2022-11-29T06:13:21.072Z,1.00
2022-11-29T06:14:21.181Z,1.00
2022-11-29T06:15:21.086Z,1.00
2022-11-29T06:16:21.177Z,1.00
2022-11-29T06:17:20.990Z,1.00
2022-11-29T06:18:21.360Z,1.00
2022-11-29T06:19:21.032Z,1.00
2022-11-29T06:20:21.193Z,1.00
2022-11-29T06:21:20.969Z,1.00
2022-11-29T06:22:21.026Z,1.00
2022-11-29T06:23:20.933Z,1.00
2022-11-29T06:24:25.701Z,1.00
2022-11-29T06:25:20.948Z,1.00
2022-11-29T06:26:20.952Z,1.00
2022-11-29T06:27:20.918Z,1.00
2022-11-29T06:28:20.967Z,1.00
2022-11-29T06:29:20.872Z,1.00
2022-11-29T06:30:20.939Z,1.00
2022-11-29T06:31:20.974Z,1.00
2022-11-29T06:32:21.274Z,1.00
2022-11-29T06:33:20.873Z,1.00
2022-11-29T06:34:20.873Z,1.00
2022-11-29T06:35:20.874Z,1.00
2022-11-29T06:36:20.880Z,1.00
2022-11-29T06:37:20.887Z,1.00
2022-11-29T06:38:22.746Z,1.00
2022-11-29T06:39:20.896Z,1.00
2022-11-29T06:40:20.905Z,1.00
2022-11-29T06:41:20.806Z,1.00
2022-11-29T06:42:20.812Z,1.00
2022-11-29T06:43:20.784Z,1.00
2022-11-29T06:44:20.825Z,1.00
2022-11-29T06:45:20.831Z,1.00
2022-11-29T06:46:20.765Z,1.00
2022-11-29T06:47:20.733Z,1.00
2022-11-29T06:48:20.734Z,1.00
2022-11-29T06:49:20.741Z,1.00
2022-11-29T06:50:20.751Z,1.00
2022-11-29T06:51:20.871Z,1.00
2022-11-29T06:52:20.659Z,1.00
2022-11-29T06:53:20.643Z,1.00
2022-11-29T06:54:20.669Z,1.00
2022-11-29T06:55:20.676Z,1.00
2022-11-29T06:56:20.687Z,1.00
2022-11-29T06:57:20.706Z,1.00
2022-11-29T06:58:20.597Z,1.00
2022-11-29T06:59:20.602Z,1.00
2022-11-29T07:00:20.610Z,1.00
2022-11-29T07:01:20.644Z,1.00
2022-11-29T07:02:20.659Z,1.00
2022-11-29T07:03:20.629Z,1.00
2022-11-29T07:04:20.533Z,1.00
2022-11-29T07:05:20.573Z,1.00
2022-11-29T07:06:20.558Z,1.00
2022-11-29T07:07:20.626Z,1.00
2022-11-29T07:08:20.783Z,1.00
2022-11-29T07:09:20.565Z,1.00
2022-11-29T07:10:20.479Z,1.00
2022-11-29T07:11:20.484Z,1.00
2022-11-29T07:12:20.492Z,1.00
2022-11-29T07:13:20.508Z,1.00
2022-11-29T07:14:22.241Z,1.00
2022-11-29T07:15:20.510Z,1.00
2022-11-29T07:16:20.466Z,1.00
2022-11-29T07:17:20.421Z,1.00
2022-11-29T07:18:20.424Z,1.00
2022-11-29T07:19:20.420Z,1.00
2022-11-29T07:20:20.428Z,1.00
2022-11-29T07:21:20.449Z,1.00
2022-11-29T07:22:20.359Z,1.00
2022-11-29T07:23:20.362Z,1.00
2022-11-29T07:24:20.368Z,1.00
2022-11-29T07:25:20.365Z,1.00
2022-11-29T07:26:20.384Z,1.00
2022-11-29T07:27:20.334Z,1.00
2022-11-29T07:28:20.283Z,1.00
2022-11-29T07:29:20.294Z,1.00
2022-11-29T07:30:20.291Z,1.00
2022-11-29T07:31:20.304Z,1.00
2022-11-29T07:32:20.268Z,1.00
2022-11-29T07:33:20.329Z,1.00
2022-11-29T07:34:20.243Z,1.00
2022-11-29T07:35:20.229Z,1.00
2022-11-29T07:36:20.192Z,1.00
2022-11-29T07:37:20.256Z,1.00
2022-11-29T07:38:20.197Z,1.00
2022-11-29T07:39:20.208Z,1.00
2022-11-29T07:40:20.162Z,1.00
2022-11-29T07:41:20.113Z,1.00
2022-11-29T07:42:20.269Z,0.00
2022-11-29T07:43:20.130Z,0.00
2022-11-29T07:44:20.143Z,0.00
2022-11-29T07:45:20.208Z,0.00
2022-11-29T07:46:20.196Z,0.00
2022-11-29T07:47:20.208Z,0.00
2022-11-29T07:48:20.166Z,0.00
2022-11-29T07:49:20.208Z,0.00
2022-11-29T07:50:20.079Z,0.00
2022-11-29T07:51:20.131Z,0.00
2022-11-29T07:52:20.135Z,0.00
2022-11-29T07:53:20.172Z,0.00
2022-11-29T07:54:20.087Z,0.00
2022-11-29T07:55:20.057Z,0.00
2022-11-29T07:56:20.061Z,0.00
2022-11-29T07:57:20.066Z,0.00
2022-11-29T07:58:20.136Z,0.00
2022-11-29T07:59:20.073Z,0.00
2022-11-29T08:00:20.040Z,0.00
2022-11-29T08:01:20.051Z,1.00
2022-11-29T08:02:19.982Z,1.00
2022-11-29T08:03:19.851Z,1.00
2022-11-29T08:04:19.859Z,1.00
2022-11-29T08:05:19.904Z,1.00
2022-11-29T08:06:19.876Z,1.00
2022-11-29T08:07:19.941Z,1.00
2022-11-29T08:08:20.762Z,1.00
2022-11-29T08:09:19.943Z,1.00
2022-11-29T08:10:19.861Z,1.00
2022-11-29T08:11:19.896Z,1.00
2022-11-29T08:12:19.811Z,1.00
2022-11-29T08:13:19.869Z,1.00
2022-11-29T08:14:19.905Z,2.00
2022-11-29T08:15:19.876Z,3.00
2022-11-29T08:16:19.943Z,2.00
2022-11-29T08:17:20.031Z,0.00
2022-11-29T08:18:19.840Z,0.00
2022-11-29T08:19:19.750Z,1.00
2022-11-29T08:20:19.830Z,3.00
2022-11-29T08:21:19.717Z,2.00
2022-11-29T08:22:19.736Z,1.00
2022-11-29T08:23:19.681Z,5.00
2022-11-29T08:24:19.806Z,5.00
2022-11-29T08:25:19.687Z,5.00
2022-11-29T08:26:19.749Z,7.00
2022-11-29T08:27:19.702Z,5.00
2022-11-29T08:28:19.605Z,4.00
2022-11-29T08:29:19.722Z,5.00
2022-11-29T08:30:19.684Z,5.00
2022-11-29T08:31:19.761Z,4.00
2022-11-29T08:32:19.691Z,2.00
2022-11-29T08:33:19.599Z,6.00
2022-11-29T08:34:19.612Z,6.00
2022-11-29T08:35:19.618Z,5.00
2022-11-29T08:36:19.560Z,10.00
2022-11-29T08:37:19.727Z,7.00
2022-11-29T08:38:19.628Z,5.00
2022-11-29T08:39:19.532Z,9.00
2022-11-29T08:40:19.550Z,8.00
2022-11-29T08:41:19.550Z,7.00
2022-11-29T08:42:20.167Z,10.00
2022-11-29T08:43:19.499Z,7.00
2022-11-29T08:44:19.507Z,5.00
2022-11-29T08:45:19.508Z,9.00
2022-11-29T08:46:19.572Z,9.00
2022-11-29T08:47:19.516Z,9.00
2022-11-29T08:48:19.529Z,9.00
2022-11-29T08:49:19.525Z,9.00
2022-11-29T08:50:19.434Z,5.00
2022-11-29T08:51:19.435Z,9.00
2022-11-29T08:52:19.441Z,12.00
2022-11-29T08:53:19.453Z,15.00
2022-11-29T08:54:19.458Z,13.00
2022-11-29T08:55:19.357Z,13.00
2022-11-29T08:58:19.382Z,11.00
2022-11-29T08:59:19.383Z,16.00
2022-11-29T09:00:19.402Z,15.00
2022-11-29T09:01:19.423Z,15.00
2022-11-29T09:02:19.391Z,11.00
2022-11-29T09:03:19.309Z,8.00
2022-11-29T09:04:19.276Z,12.00
2022-11-29T09:05:19.320Z,15.00
2022-11-29T09:06:19.329Z,21.00
2022-11-29T09:07:19.308Z,23.00
2022-11-29T09:08:19.238Z,23.00
2022-11-29T09:09:19.250Z,28.00
2022-11-29T09:10:19.252Z,27.00
2022-11-29T09:11:19.268Z,34.00
2022-11-29T09:12:19.274Z,37.00
2022-11-29T09:13:19.295Z,35.00
2022-11-29T09:14:19.173Z,38.00
2022-11-29T09:15:19.187Z,38.00
2022-11-29T09:16:19.218Z,27.00
2022-11-29T09:17:19.161Z,33.00
2022-11-29T09:18:19.170Z,35.00
2022-11-29T09:19:19.071Z,49.00
2022-11-29T09:20:19.078Z,44.00
2022-11-29T09:21:19.094Z,40.00
2022-11-29T09:22:19.192Z,39.00
2022-11-29T09:23:19.047Z,42.00
2022-11-29T09:24:19.104Z,38.00
2022-11-29T09:25:19.035Z,45.00
2022-11-29T09:26:19.115Z,42.00
2022-11-29T09:27:19.020Z,49.00
2022-11-29T09:28:19.058Z,53.00
2022-11-29T09:29:19.081Z,54.00
2022-11-29T09:30:23.552Z,52.00
2022-11-29T09:31:19.021Z,46.00
2022-11-29T09:32:19.054Z,49.00
2022-11-29T09:33:18.957Z,65.00
2022-11-29T09:34:19.065Z,63.00
2022-11-29T09:35:19.011Z,53.00
2022-11-29T09:36:22.577Z,56.00
2022-11-29T09:37:18.884Z,53.00
2022-11-29T09:38:19.240Z,64.00
2022-11-29T09:39:18.892Z,72.00
2022-11-29T09:40:18.841Z,60.00
2022-11-29T09:41:18.956Z,62.00
2022-11-29T09:42:18.917Z,66.00
2022-11-29T09:43:18.857Z,62.00
2022-11-29T09:44:18.969Z,64.00
2022-11-29T09:45:18.875Z,66.00
2022-11-29T09:46:18.884Z,65.00
2022-11-29T09:47:18.990Z,60.00
2022-11-29T09:48:18.871Z,64.00
2022-11-29T09:49:18.758Z,61.00
2022-11-29T09:50:18.822Z,55.00
2022-11-29T09:51:18.790Z,67.00
2022-11-29T09:52:18.785Z,72.00
2022-11-29T09:53:18.739Z,68.00
2022-11-29T09:54:19.038Z,58.00
2022-11-29T09:55:18.737Z,64.00
2022-11-29T09:56:18.847Z,72.00
2022-11-29T09:57:18.803Z,65.00
2022-11-29T09:58:18.737Z,56.00
2022-11-29T09:59:18.740Z,64.00
2022-11-29T10:00:18.776Z,65.00
2022-11-29T10:01:18.663Z,131.00
2022-11-29T10:02:21.583Z,90.00
2022-11-29T10:03:18.692Z,82.00
2022-11-29T10:04:18.702Z,87.00
2022-11-29T10:05:19.293Z,89.00
2022-11-29T10:06:18.685Z,89.00
2022-11-29T10:07:18.785Z,87.00
2022-11-29T10:08:18.626Z,99.00
2022-11-29T10:09:18.534Z,92.00
2022-11-29T10:10:18.670Z,89.00
2022-11-29T10:11:18.548Z,95.00
2022-11-29T10:12:18.516Z,97.00
2022-11-29T10:13:18.525Z,95.00
2022-11-29T10:14:18.540Z,102.00
2022-11-29T10:15:18.538Z,108.00
2022-11-29T10:16:18.671Z,102.00
2022-11-29T10:17:19.264Z,99.00
2022-11-29T10:18:18.566Z,119.00
2022-11-29T10:19:18.475Z,117.00
2022-11-29T10:20:18.522Z,112.00
2022-11-29T10:21:18.417Z,109.00
2022-11-29T10:22:18.496Z,105.00
2022-11-29T10:23:18.495Z,107.00
2022-11-29T10:24:18.510Z,105.00
2022-11-29T10:25:18.498Z,103.00
2022-11-29T10:26:18.401Z,106.00
2022-11-29T10:27:18.356Z,107.00
2022-11-29T10:28:18.395Z,107.00
2022-11-29T10:29:18.368Z,107.00
2022-11-29T10:30:18.448Z,105.00
2022-11-29T10:31:18.384Z,115.00
2022-11-29T10:32:18.440Z,116.00
2022-11-29T10:33:18.289Z,120.00
2022-11-29T10:34:18.350Z,115.00
2022-11-29T10:35:18.340Z,119.00
2022-11-29T10:36:18.354Z,116.00
2022-11-29T10:37:18.362Z,114.00
2022-11-29T10:38:33.737Z,114.00
2022-11-29T10:39:18.268Z,117.00
2022-11-29T10:40:18.235Z,123.00
2022-11-29T10:41:18.278Z,133.00
2022-11-29T10:42:18.291Z,143.00
2022-11-29T10:43:18.206Z,138.00
2022-11-29T10:44:18.306Z,123.00
2022-11-29T10:45:18.214Z,121.00
2022-11-29T10:46:18.249Z,112.00
2022-11-29T10:47:18.225Z,125.00
2022-11-29T10:48:18.236Z,126.00
2022-11-29T10:49:18.149Z,123.00
2022-11-29T10:50:18.157Z,114.00
2022-11-29T10:51:18.100Z,120.00
2022-11-29T10:52:18.154Z,121.00
2022-11-29T10:53:18.163Z,122.00
2022-11-29T10:54:18.167Z,126.00
2022-11-29T10:55:18.081Z,125.00
2022-11-29T10:56:18.020Z,130.00
2022-11-29T10:57:18.019Z,130.00
2022-11-29T10:58:20.893Z,126.00
2022-11-29T10:59:18.731Z,126.00
2022-11-29T11:00:18.112Z,125.00
2022-11-29T11:01:18.015Z,125.00
2022-11-29T11:02:18.011Z,129.00
2022-11-29T11:03:18.018Z,128.00
2022-11-29T11:04:17.966Z,134.00
2022-11-29T11:05:18.111Z,132.00
2022-11-29T11:06:17.978Z,134.00
2022-11-29T11:07:17.967Z,131.00
2022-11-29T11:08:17.956Z,131.00
2022-11-29T11:09:17.898Z,133.00
2022-11-29T11:10:17.901Z,142.00
2022-11-29T11:11:17.899Z,140.00
2022-11-29T11:12:17.886Z,150.00
2022-11-29T11:13:17.881Z,149.00
2022-11-29T11:14:17.835Z,153.00
2022-11-29T11:15:17.834Z,153.00
2022-11-29T11:16:18.001Z,159.00
2022-11-29T11:17:17.855Z,157.00
2022-11-29T11:18:17.815Z,153.00
2022-11-29T11:19:17.821Z,162.00
2022-11-29T11:20:17.827Z,168.00
2022-11-29T11:21:17.863Z,181.00
2022-11-29T11:22:17.854Z,172.00
2022-11-29T11:23:17.782Z,166.00
2022-11-29T11:24:17.745Z,157.00
2022-11-29T11:25:17.768Z,161.00
2022-11-29T11:26:17.772Z,164.00
2022-11-29T11:27:17.708Z,166.00
2022-11-29T11:28:17.774Z,161.00
2022-11-29T11:29:17.726Z,161.00
2022-11-29T11:30:17.692Z,163.00
2022-11-29T11:31:17.711Z,166.00
2022-11-29T11:32:17.733Z,182.00
2022-11-29T11:33:17.715Z,179.00
2022-11-29T11:34:17.652Z,163.00
2022-11-29T11:35:18.612Z,205.00
2022-11-29T11:36:17.665Z,244.00
2022-11-29T11:37:17.775Z,230.00
2022-11-29T11:38:17.649Z,214.00
2022-11-29T11:39:17.583Z,197.00
2022-11-29T11:40:17.746Z,178.00
2022-11-29T11:41:17.566Z,162.00
2022-11-29T11:42:17.552Z,153.00
2022-11-29T11:43:17.581Z,160.00
2022-11-29T11:44:45.625Z,158.00
2022-11-29T11:45:17.601Z,162.00
2022-11-29T11:46:18.224Z,164.00
2022-11-29T11:47:17.501Z,169.00
2022-11-29T11:48:17.542Z,175.00
2022-11-29T11:49:17.524Z,183.00
2022-11-29T11:50:17.846Z,190.00
2022-11-29T11:51:17.475Z,236.00
2022-11-29T11:52:17.483Z,214.00
2022-11-29T11:53:17.447Z,214.00
2022-11-29T11:54:17.468Z,215.00
2022-11-29T11:55:17.467Z,219.00
2022-11-29T11:56:17.475Z,214.00
2022-11-29T11:57:17.457Z,202.00
2022-11-29T11:58:17.472Z,195.00
2022-11-29T11:59:17.614Z,210.00
2022-11-29T12:00:34.442Z,206.00
2022-11-29T12:01:17.404Z,222.00
2022-11-29T12:02:19.392Z,241.00
2022-11-29T12:03:18.153Z,246.00
2022-11-29T12:04:17.440Z,266.00
2022-11-29T12:05:17.263Z,269.00
2022-11-29T12:06:17.337Z,267.00
2022-11-29T12:07:17.379Z,270.00
2022-11-29T12:08:17.910Z,273.00
2022-11-29T12:09:17.354Z,270.00
2022-11-29T12:10:17.345Z,188.00
2022-11-29T12:11:17.287Z,519.00
2022-11-29T12:12:17.264Z,382.00
2022-11-29T12:13:17.365Z,302.00
2022-11-29T12:14:17.282Z,435.00
2022-11-29T12:15:17.311Z,247.00
2022-11-29T12:16:17.337Z,531.00
2022-11-29T12:17:20.185Z,394.00
2022-11-29T12:18:17.198Z,294.00
2022-11-29T12:19:17.217Z,218.00
2022-11-29T12:20:17.317Z,369.00
2022-11-29T12:21:17.841Z,330.00
2022-11-29T12:22:17.234Z,245.00
2022-11-29T12:23:17.138Z,213.00
2022-11-29T12:24:17.254Z,158.00
2022-11-29T12:25:17.158Z,258.00
2022-11-29T12:26:48.506Z,553.00
2022-11-29T12:27:17.203Z,374.00
2022-11-29T12:28:20.548Z,208.00
2022-11-29T12:29:17.681Z,497.00
2022-11-29T12:30:17.080Z,464.00
2022-11-29T12:31:17.106Z,175.00
2022-11-29T12:32:17.069Z,705.00
2022-11-29T12:33:17.097Z,231.00
2022-11-29T12:34:22.005Z,557.00
2022-11-29T12:35:18.938Z,293.00
2022-11-29T12:36:17.020Z,910.00
2022-11-29T12:37:17.018Z,435.00
2022-11-29T12:38:17.045Z,497.00
2022-11-29T12:39:17.036Z,1057.00
2022-11-29T12:40:16.952Z,292.00
2022-11-29T12:41:16.968Z,716.00
2022-11-29T12:42:16.953Z,734.00
2022-11-29T12:43:16.942Z,665.00
2022-11-29T12:44:17.433Z,727.00
2022-11-29T12:45:16.976Z,717.00
2022-11-29T12:46:17.014Z,731.00
2022-11-29T12:48:17.608Z,731.00
2022-11-29T12:49:16.898Z,709.00
2022-11-29T12:50:16.904Z,733.00
2022-11-29T12:51:16.914Z,754.00
2022-11-29T12:52:16.927Z,735.00
2022-11-29T12:53:16.826Z,734.00
2022-11-29T12:54:16.837Z,732.00
2022-11-29T12:55:17.054Z,724.00
2022-11-29T12:56:16.861Z,1059.00
2022-11-29T12:57:16.803Z,309.00
2022-11-29T12:58:16.811Z,877.00
2022-11-29T12:59:16.716Z,836.00
2022-11-29T13:00:16.722Z,517.00
2022-11-29T13:01:16.844Z,372.00
2022-11-29T13:02:16.737Z,627.00
2022-11-29T13:03:16.807Z,516.00
2022-11-29T13:04:16.749Z,483.00
2022-11-29T13:05:16.656Z,999.00
2022-11-29T13:06:16.706Z,478.00
2022-11-29T13:07:16.770Z,552.00